createdAt,value
2017-07-17T00:00:32.559Z,58.50
2017-07-17T00:03:01.341Z,58.70
2017-07-17T00:05:29.693Z,72.80
2017-07-17T00:07:58.054Z,62.27
2017-07-17T00:10:26.405Z,76.40
2017-07-17T00:12:54.776Z,66.73
2017-07-17T00:15:23.133Z,65.60
2017-07-17T00:17:51.689Z,69.67
2017-07-17T00:20:20.031Z,58.60
2017-07-17T00:22:48.434Z,55.63
2017-07-17T00:25:16.801Z,71.53
2017-07-17T00:27:45.162Z,55.30
2017-07-17T00:30:13.537Z,59.53
2017-07-17T00:32:41.901Z,48.47
2017-07-17T00:35:11.047Z,47.07
2017-07-17T00:37:39.399Z,63.87
2017-07-17T00:40:07.761Z,47.43
2017-07-17T00:42:36.517Z,32.47
2017-07-17T00:45:05.139Z,59.10
2017-07-17T00:47:34.246Z,45.67
2017-07-17T00:50:02.604Z,40.13
2017-07-17T00:52:31.355Z,47.77
2017-07-17T00:54:59.704Z,42.03
2017-07-17T00:57:28.268Z,44.07
2017-07-17T00:59:56.629Z,49.80
2017-07-17T01:02:24.985Z,44.80
2017-07-17T01:04:53.352Z,44.80
2017-07-17T01:07:21.713Z,32.43
2017-07-17T01:09:50.412Z,38.37
2017-07-17T01:12:18.766Z,35.40
2017-07-17T01:14:47.119Z,29.60
2017-07-17T01:17:15.881Z,36.47
2017-07-17T01:19:44.284Z,32.30
2017-07-17T01:22:12.819Z,29.77
2017-07-17T01:24:41.173Z,25.57
2017-07-17T01:27:09.529Z,29.50
2017-07-17T01:29:38.288Z,28.73
2017-07-17T01:32:06.651Z,28.87
2017-07-17T01:34:35.016Z,32.37
2017-07-17T01:37:03.380Z,22.63
2017-07-17T01:39:32.100Z,25.10
2017-07-17T01:42:00.454Z,31.03
2017-07-17T01:44:28.808Z,31.90
2017-07-17T01:46:57.557Z,24.37
2017-07-17T01:49:25.917Z,20.60
2017-07-17T01:51:54.270Z,27.13
2017-07-17T01:54:22.622Z,31.80
2017-07-17T01:56:51.384Z,21.57
2017-07-17T01:59:19.756Z,19.13
2017-07-17T02:01:48.111Z,20.70
2017-07-17T02:04:16.463Z,23.20
2017-07-17T02:06:44.992Z,19.63
2017-07-17T02:09:14.939Z,23.03
2017-07-17T02:11:43.688Z,22.70
2017-07-17T02:14:12.052Z,28.70
2017-07-17T02:16:40.413Z,27.13
2017-07-17T02:19:09.085Z,29.80
2017-07-17T02:21:37.837Z,29.53
2017-07-17T02:24:06.195Z,27.93
2017-07-17T02:26:34.544Z,27.00
2017-07-17T02:29:03.171Z,20.60
2017-07-17T02:31:31.533Z,15.77
2017-07-17T02:33:59.893Z,18.20
2017-07-17T02:36:28.255Z,19.43
2017-07-17T02:38:57.108Z,17.40
2017-07-17T02:41:25.476Z,16.13
2017-07-17T02:43:53.824Z,18.73
2017-07-17T02:46:22.544Z,17.70
2017-07-17T02:48:50.900Z,14.07
2017-07-17T02:51:19.257Z,21.20
2017-07-17T02:53:48.012Z,17.07
2017-07-17T02:56:16.364Z,15.03
2017-07-17T02:58:44.715Z,15.27
2017-07-17T03:01:13.079Z,25.17
2017-07-17T03:03:41.839Z,23.50
2017-07-17T03:06:10.183Z,16.40
2017-07-17T03:08:38.980Z,31.50
2017-07-17T03:11:07.336Z,11.87
2017-07-17T03:13:35.697Z,18.30
2017-07-17T03:16:04.472Z,12.80
2017-07-17T03:18:33.224Z,12.10
2017-07-17T03:21:01.908Z,11.67
2017-07-17T03:23:51.049Z,16.83
2017-07-17T03:26:19.655Z,15.40
2017-07-17T03:28:48.004Z,15.80
2017-07-17T03:31:16.352Z,27.63
2017-07-17T03:33:45.134Z,17.73
2017-07-17T03:36:13.507Z,11.33
2017-07-17T03:38:41.868Z,15.73
2017-07-17T03:41:10.239Z,19.83
2017-07-17T03:43:38.609Z,13.70
2017-07-17T03:46:06.969Z,14.30
2017-07-17T03:48:35.638Z,33.63
2017-07-17T03:51:04.395Z,23.50
2017-07-17T03:53:32.742Z,13.87
2017-07-17T03:56:01.108Z,17.57
2017-07-17T03:58:29.451Z,9.40
2017-07-17T04:00:58.404Z,22.93
2017-07-17T04:03:26.760Z,17.23
2017-07-17T04:05:55.113Z,9.07
2017-07-17T04:08:23.870Z,8.07
2017-07-17T04:10:52.233Z,17.47
2017-07-17T04:13:20.612Z,18.13
2017-07-17T04:15:49.074Z,12.73
2017-07-17T04:18:17.432Z,21.70
2017-07-17T04:20:45.781Z,9.93
2017-07-17T04:23:14.149Z,11.63
2017-07-17T04:25:42.500Z,13.73
2017-07-17T04:28:11.345Z,11.17
2017-07-17T04:30:40.102Z,9.13
2017-07-17T04:33:08.448Z,14.50
2017-07-17T04:35:36.814Z,12.20
2017-07-17T04:38:05.206Z,9.17
2017-07-17T04:40:33.563Z,19.73
2017-07-17T04:43:02.405Z,10.77
2017-07-17T04:45:31.192Z,11.47
2017-07-17T04:47:59.560Z,7.67
2017-07-17T04:50:27.916Z,13.70
2017-07-17T04:52:56.281Z,10.10
2017-07-17T04:55:25.019Z,13.10
2017-07-17T04:57:53.906Z,9.80
2017-07-17T05:00:22.231Z,9.40
2017-07-17T05:02:51.180Z,10.17
2017-07-17T05:05:19.532Z,17.93
2017-07-17T05:07:47.880Z,14.63
2017-07-17T05:10:16.641Z,10.90
2017-07-17T05:12:44.997Z,8.70
2017-07-17T05:15:13.358Z,9.40
2017-07-17T05:17:41.703Z,14.97
2017-07-17T05:20:10.643Z,4.53
2017-07-17T05:22:38.987Z,12.10
2017-07-17T05:25:07.335Z,12.73
2017-07-17T05:27:35.706Z,21.87
2017-07-17T05:30:04.073Z,9.60
2017-07-17T05:32:32.443Z,7.50
2017-07-17T05:35:00.802Z,9.50
2017-07-17T05:37:29.151Z,7.10
2017-07-17T05:39:57.905Z,16.43
2017-07-17T05:42:26.471Z,9.80
2017-07-17T05:44:54.830Z,6.17
2017-07-17T05:47:23.188Z,10.43
2017-07-17T05:49:51.548Z,4.83
2017-07-17T05:52:19.906Z,10.43
2017-07-17T05:54:48.370Z,6.20
2017-07-17T05:57:16.725Z,7.43
2017-07-17T05:59:45.096Z,10.90
2017-07-17T06:02:13.457Z,5.17
2017-07-17T06:04:42.421Z,10.17
2017-07-17T06:07:10.763Z,8.97
2017-07-17T06:09:39.116Z,9.50
2017-07-17T06:12:07.872Z,10.47
2017-07-17T06:14:36.233Z,7.63
2017-07-17T06:17:04.588Z,4.00
2017-07-17T06:19:32.944Z,3.87
2017-07-17T06:22:01.898Z,9.33
2017-07-17T06:24:30.248Z,7.43
2017-07-17T06:26:58.600Z,10.43
2017-07-17T06:29:27.437Z,4.03
2017-07-17T06:31:55.783Z,3.37
2017-07-17T06:34:24.356Z,9.00
2017-07-17T06:36:52.714Z,5.77
2017-07-17T06:39:21.505Z,10.30
2017-07-17T06:41:50.264Z,2.60
2017-07-17T06:44:18.614Z,4.10
2017-07-17T06:46:46.981Z,4.50
2017-07-17T06:49:15.323Z,6.67
2017-07-17T06:51:43.886Z,4.10
2017-07-17T06:54:12.242Z,4.53
2017-07-17T06:56:40.636Z,8.53
2017-07-17T06:59:09.062Z,3.10
2017-07-17T07:01:37.813Z,2.50
2017-07-17T07:04:06.192Z,4.83
2017-07-17T07:06:34.555Z,2.37
2017-07-17T07:09:02.913Z,11.10
2017-07-17T07:11:31.271Z,4.23
2017-07-17T07:14:00.185Z,2.17
2017-07-17T07:16:28.536Z,5.13
2017-07-17T07:18:57.530Z,5.50
2017-07-17T07:21:25.889Z,9.90
2017-07-17T07:23:54.227Z,7.50
2017-07-17T07:26:22.745Z,6.27
2017-07-17T07:28:51.103Z,14.40
2017-07-17T07:31:19.457Z,2.93
2017-07-17T07:33:47.821Z,4.87
2017-07-17T07:36:16.173Z,2.37
2017-07-17T07:38:44.551Z,7.10
2017-07-17T07:41:12.909Z,4.83
2017-07-17T07:43:41.490Z,4.37
2017-07-17T07:46:09.844Z,3.83
2017-07-17T07:48:38.240Z,4.03
2017-07-17T07:51:06.591Z,5.23
2017-07-17T07:53:34.941Z,5.10
2017-07-17T07:56:03.302Z,4.13
2017-07-17T07:58:31.664Z,2.60
2017-07-17T08:01:00.017Z,2.97
2017-07-17T08:03:28.365Z,4.63
2017-07-17T08:05:56.793Z,4.90
2017-07-17T08:08:25.149Z,3.33
2017-07-17T08:10:53.675Z,1.97
2017-07-17T08:13:22.033Z,3.27
2017-07-17T08:15:50.375Z,4.60
2017-07-17T08:18:19.124Z,3.70
2017-07-17T08:20:47.473Z,2.83
2017-07-17T08:23:15.846Z,6.70
2017-07-17T08:25:44.195Z,9.60
2017-07-17T08:28:12.877Z,6.43
2017-07-17T08:30:41.219Z,3.50
2017-07-17T08:33:09.801Z,3.23
2017-07-17T08:35:38.153Z,7.43
2017-07-17T08:38:06.534Z,9.80
2017-07-17T08:40:34.901Z,2.30
2017-07-17T08:43:03.264Z,1.73
2017-07-17T08:45:32.022Z,1.37
2017-07-17T08:48:00.371Z,2.23
2017-07-17T08:50:28.865Z,4.90
2017-07-17T08:52:57.225Z,12.90
2017-07-17T08:55:25.649Z,3.93
2017-07-17T08:57:53.995Z,5.23
2017-07-17T09:00:22.375Z,8.13
2017-07-17T09:02:51.059Z,1.43
2017-07-17T09:05:19.416Z,3.17
2017-07-17T09:07:47.772Z,1.60
2017-07-17T09:10:16.533Z,7.10
2017-07-17T09:12:44.884Z,3.30
2017-07-17T09:15:13.377Z,4.00
2017-07-17T09:17:41.719Z,1.83
2017-07-17T09:20:10.069Z,5.63
2017-07-17T09:22:38.428Z,3.83
2017-07-17T09:25:06.769Z,6.30
2017-07-17T09:27:35.128Z,2.07
2017-07-17T09:30:03.485Z,2.07
2017-07-17T09:32:32.247Z,4.83
2017-07-17T09:35:00.605Z,3.73
2017-07-17T09:37:28.958Z,3.60
2017-07-17T09:39:57.326Z,1.93
2017-07-17T09:42:25.679Z,4.17
2017-07-17T09:44:54.040Z,5.90
2017-07-17T09:47:22.384Z,2.33
2017-07-17T09:49:50.749Z,2.53
2017-07-17T09:52:19.101Z,5.20
2017-07-17T09:54:47.459Z,2.70
2017-07-17T09:57:15.817Z,4.20
2017-07-17T09:59:44.315Z,2.60
2017-07-17T10:02:12.665Z,1.20
2017-07-17T10:04:41.025Z,3.17
2017-07-17T10:07:09.387Z,1.60
2017-07-17T10:09:38.140Z,3.10
2017-07-17T10:12:06.496Z,2.73
2017-07-17T10:14:34.841Z,5.90
2017-07-17T10:17:03.793Z,5.30
2017-07-17T10:19:32.140Z,4.00
2017-07-17T10:22:00.793Z,1.77
2017-07-17T10:24:29.543Z,1.90
2017-07-17T10:26:57.898Z,3.60
2017-07-17T10:29:26.256Z,1.60
2017-07-17T10:31:54.613Z,1.73
2017-07-17T10:34:23.597Z,9.50
2017-07-17T10:36:51.934Z,5.70
2017-07-17T10:39:20.280Z,3.00
2017-07-17T10:41:49.037Z,4.50
2017-07-17T10:44:17.425Z,10.93
2017-07-17T10:46:45.779Z,7.43
2017-07-17T10:49:14.133Z,6.83
2017-07-17T10:51:42.637Z,1.83
2017-07-17T10:54:10.993Z,1.50
2017-07-17T10:56:39.335Z,3.50
2017-07-17T10:59:07.698Z,2.00
2017-07-17T11:01:36.043Z,2.17
2017-07-17T11:04:04.414Z,1.77
2017-07-17T11:06:32.769Z,10.33
2017-07-17T11:09:01.700Z,7.73
2017-07-17T11:11:30.043Z,2.60
2017-07-17T11:13:58.394Z,2.13
2017-07-17T11:16:26.756Z,10.17
2017-07-17T11:18:55.099Z,7.43
2017-07-17T11:21:23.599Z,2.27
2017-07-17T11:23:51.935Z,1.77
2017-07-17T11:26:20.283Z,2.80
2017-07-17T11:28:48.631Z,2.00
2017-07-17T11:31:16.985Z,6.03
2017-07-17T11:33:45.505Z,8.33
2017-07-17T11:36:13.869Z,9.73
2017-07-17T11:38:42.215Z,3.13
2017-07-17T11:41:10.637Z,3.33
2017-07-17T11:43:38.987Z,2.87
2017-07-17T11:56:22.253Z,1.73
2017-07-17T11:58:50.996Z,3.23
2017-07-17T12:01:19.634Z,6.50
2017-07-17T12:03:48.385Z,5.47
2017-07-17T12:06:16.749Z,5.67
2017-07-17T12:08:45.108Z,3.43
2017-07-17T12:11:13.466Z,1.80
2017-07-17T12:13:42.212Z,1.90
2017-07-17T12:16:10.561Z,1.47
2017-07-17T12:18:39.087Z,7.97
2017-07-17T12:21:07.548Z,6.27
2017-07-17T12:23:35.895Z,4.30
2017-07-17T12:26:04.247Z,2.30
2017-07-17T12:28:32.987Z,5.67
2017-07-17T12:31:01.359Z,11.53
2017-07-17T12:33:29.737Z,5.73
2017-07-17T12:35:58.248Z,1.40
2017-07-17T12:38:26.605Z,2.90
2017-07-17T12:40:54.961Z,1.77
2017-07-17T12:43:23.312Z,2.47
2017-07-17T12:45:52.067Z,5.30
2017-07-17T12:48:20.424Z,5.57
2017-07-17T12:50:48.779Z,4.17
2017-07-17T12:53:17.518Z,5.23
2017-07-17T12:55:45.865Z,4.03
2017-07-17T12:58:14.220Z,3.77
2017-07-17T13:00:42.987Z,2.50
2017-07-17T13:03:11.331Z,1.57
2017-07-17T13:05:40.119Z,1.53
2017-07-17T13:08:08.481Z,3.83
2017-07-17T13:10:36.849Z,1.37
2017-07-17T13:13:05.219Z,4.20
2017-07-17T13:15:33.586Z,1.87
2017-07-17T13:18:02.614Z,5.73
2017-07-17T13:20:30.969Z,3.73
2017-07-17T13:22:59.709Z,4.03
2017-07-17T13:25:28.072Z,3.10
2017-07-17T13:27:56.443Z,5.33
2017-07-17T13:30:24.819Z,3.10
2017-07-17T13:32:53.173Z,2.30
2017-07-17T13:35:22.117Z,2.50
2017-07-17T13:37:50.487Z,2.23
2017-07-17T13:40:18.828Z,2.10
2017-07-17T13:42:47.499Z,2.50
2017-07-17T13:45:16.245Z,2.50
2017-07-17T13:47:44.645Z,1.50
2017-07-17T13:50:13.004Z,5.33
2017-07-17T13:52:41.693Z,4.00
2017-07-17T13:55:10.040Z,2.30
2017-07-17T13:57:38.393Z,2.57
2017-07-17T14:00:07.166Z,1.50
2017-07-17T14:02:35.541Z,6.43
2017-07-17T14:05:04.006Z,5.37
2017-07-17T14:07:32.348Z,2.37
2017-07-17T14:10:00.692Z,2.33
2017-07-17T14:12:29.053Z,1.90
2017-07-17T14:14:57.409Z,2.03
2017-07-17T14:17:25.900Z,15.23
2017-07-17T14:19:54.420Z,4.70
2017-07-17T14:22:23.161Z,2.90
2017-07-17T14:24:51.529Z,4.57
2017-07-17T14:27:19.903Z,3.00
2017-07-17T14:29:48.293Z,2.10
2017-07-17T14:32:16.640Z,3.47
2017-07-17T14:34:45.679Z,3.83
2017-07-17T14:37:14.026Z,2.50
2017-07-17T14:39:42.379Z,2.23
2017-07-17T14:42:11.148Z,10.73
2017-07-17T14:44:39.510Z,7.30
2017-07-17T14:47:07.864Z,4.83
2017-07-17T14:49:36.213Z,4.63
2017-07-17T14:52:05.153Z,5.07
2017-07-17T14:54:33.495Z,6.27
2017-07-17T14:57:01.915Z,2.60
2017-07-17T14:59:30.282Z,2.10
2017-07-17T15:01:58.653Z,2.67
2017-07-17T15:04:27.161Z,4.50
2017-07-17T15:06:55.516Z,4.50
2017-07-17T15:09:23.868Z,2.10
2017-07-17T15:11:52.624Z,3.60
2017-07-17T15:14:20.982Z,3.90
2017-07-17T15:16:49.513Z,3.93
2017-07-17T15:19:18.260Z,5.43
2017-07-17T15:21:46.617Z,2.30
2017-07-17T15:24:15.262Z,4.03
2017-07-17T15:26:44.017Z,5.50
2017-07-17T15:29:12.488Z,3.00
2017-07-17T15:31:40.850Z,6.10
2017-07-17T15:34:09.210Z,2.10
2017-07-17T15:36:37.568Z,8.57
2017-07-17T15:39:06.317Z,4.33
2017-07-17T15:41:34.808Z,2.37
2017-07-17T15:44:03.163Z,2.97
2017-07-17T15:46:31.512Z,2.30
2017-07-17T15:49:00.278Z,1.60
2017-07-17T15:51:28.642Z,2.80
2017-07-17T15:53:57.002Z,2.13
2017-07-17T15:56:25.358Z,3.37
2017-07-17T15:58:53.861Z,2.20
2017-07-17T16:01:22.218Z,4.90
2017-07-17T16:03:50.589Z,2.73
2017-07-17T16:06:18.955Z,3.03
2017-07-17T16:08:47.304Z,2.23
2017-07-17T16:11:15.663Z,2.37
2017-07-17T16:13:44.013Z,2.53
2017-07-17T16:16:12.530Z,4.20
2017-07-17T16:18:40.897Z,11.70
2017-07-17T16:21:09.298Z,3.10
2017-07-17T16:23:37.657Z,2.50
2017-07-17T16:26:06.036Z,19.70
2017-07-17T16:28:34.710Z,8.30
2017-07-17T16:31:03.062Z,8.70
2017-07-17T16:33:31.818Z,3.10
2017-07-17T16:36:00.190Z,3.87
2017-07-17T16:38:28.540Z,2.60
2017-07-17T16:40:57.184Z,2.93
2017-07-17T16:43:25.938Z,3.17
2017-07-17T16:45:54.463Z,10.77
2017-07-17T16:48:23.206Z,2.47
2017-07-17T16:50:51.552Z,4.90
2017-07-17T16:53:19.917Z,1.73
2017-07-17T16:55:48.279Z,16.00
2017-07-17T16:58:17.247Z,5.30
2017-07-17T17:00:45.604Z,5.63
2017-07-17T17:03:13.963Z,7.97
2017-07-17T17:05:42.333Z,4.10
2017-07-17T17:08:10.690Z,7.70
2017-07-17T17:10:39.633Z,7.33
2017-07-17T17:13:07.991Z,2.40
2017-07-17T17:15:36.334Z,4.77
2017-07-17T17:18:05.103Z,3.40
2017-07-17T17:20:33.453Z,4.57
2017-07-17T17:23:02.059Z,3.80
2017-07-17T17:25:30.409Z,2.50
2017-07-17T17:27:58.769Z,2.70
2017-07-17T17:30:27.137Z,4.87
2017-07-17T17:32:55.977Z,3.17
2017-07-17T17:35:24.337Z,5.53
2017-07-17T17:37:52.695Z,5.97
2017-07-17T17:40:21.058Z,7.60
2017-07-17T17:42:49.808Z,5.20
2017-07-17T17:45:18.397Z,3.20
2017-07-17T17:47:46.742Z,2.50
2017-07-17T17:50:15.100Z,4.03
2017-07-17T17:52:43.862Z,9.87
2017-07-17T17:55:12.216Z,4.37
2017-07-17T17:57:40.701Z,3.67
2017-07-17T18:00:09.061Z,4.30
2017-07-17T18:02:37.634Z,3.07
2017-07-17T18:05:05.987Z,3.10
2017-07-17T18:07:34.739Z,2.83
2017-07-17T18:10:03.465Z,8.63
2017-07-17T18:12:32.216Z,2.40
2017-07-17T18:15:00.572Z,3.20
2017-07-17T18:17:28.933Z,3.00
2017-07-17T18:19:57.294Z,4.37
2017-07-17T18:22:25.662Z,3.67
2017-07-17T18:24:54.022Z,5.30
2017-07-17T18:27:22.560Z,2.80
2017-07-17T18:29:50.912Z,9.70
2017-07-17T18:32:19.648Z,5.90
2017-07-17T18:34:48.021Z,3.40
2017-07-17T18:37:16.380Z,2.70
2017-07-17T18:39:44.895Z,3.20
2017-07-17T18:42:13.278Z,3.40
2017-07-17T18:44:41.628Z,3.80
2017-07-17T18:47:10.016Z,3.73
2017-07-17T18:49:38.363Z,3.63
2017-07-17T18:52:06.730Z,4.03
2017-07-17T18:54:35.486Z,3.97
2017-07-17T18:57:03.849Z,4.63
2017-07-17T18:59:32.205Z,3.37
2017-07-17T19:02:00.563Z,4.80
2017-07-17T19:04:29.302Z,6.70
2017-07-17T19:06:57.880Z,5.57
2017-07-17T19:09:26.224Z,19.40
2017-07-17T19:11:54.572Z,5.90
2017-07-17T19:14:22.942Z,4.43
2017-07-17T19:16:51.293Z,9.90
2017-07-17T19:19:19.649Z,4.80
2017-07-17T19:21:48.308Z,4.80
2017-07-17T19:24:17.252Z,12.77
2017-07-17T19:26:45.601Z,5.27
2017-07-17T19:29:13.965Z,12.67
2017-07-17T19:31:42.721Z,6.03
2017-07-17T19:34:11.230Z,6.57
2017-07-17T19:36:39.917Z,9.20
2017-07-17T19:39:08.673Z,13.90
2017-07-17T19:41:37.034Z,6.47
2017-07-17T19:44:05.395Z,7.43
2017-07-17T19:46:33.920Z,5.90
2017-07-17T19:49:02.276Z,6.47
2017-07-17T19:51:30.909Z,12.00
2017-07-17T19:53:59.667Z,15.87
2017-07-17T19:56:28.020Z,25.20
2017-07-17T19:58:56.617Z,6.13
2017-07-17T20:01:24.967Z,12.10
2017-07-17T20:03:53.332Z,9.87
2017-07-17T20:06:21.717Z,16.27
2017-07-17T20:08:50.073Z,14.23
2017-07-17T20:11:18.652Z,9.13
2017-07-17T20:13:47.017Z,7.63
2017-07-17T20:16:15.369Z,5.40
2017-07-17T20:18:43.737Z,8.93
2017-07-17T20:21:12.101Z,8.83
2017-07-17T20:23:40.463Z,6.80
2017-07-17T20:26:09.208Z,11.33
2017-07-17T20:28:37.693Z,7.57
2017-07-17T20:31:06.045Z,6.77
2017-07-17T20:33:34.398Z,9.07
2017-07-17T20:36:03.156Z,13.63
2017-07-17T20:38:31.526Z,9.00
2017-07-17T20:40:59.885Z,14.97
2017-07-17T20:43:28.227Z,21.23
2017-07-17T20:45:56.605Z,11.17
2017-07-17T20:48:25.363Z,14.33
2017-07-17T20:50:53.886Z,14.47
2017-07-17T20:53:22.244Z,13.70
2017-07-17T20:55:50.999Z,16.03
2017-07-17T20:58:19.352Z,14.03
2017-07-17T21:00:47.704Z,12.63
2017-07-17T21:03:17.031Z,8.27
2017-07-17T21:05:45.384Z,18.60
2017-07-17T21:08:14.141Z,12.63
2017-07-17T21:10:42.578Z,13.20
2017-07-17T21:13:10.940Z,19.70
2017-07-17T21:15:39.299Z,16.47
2017-07-17T21:18:08.053Z,8.60
2017-07-17T21:20:36.535Z,11.20
2017-07-17T21:23:04.897Z,13.93
2017-07-17T21:25:33.539Z,9.57
2017-07-17T21:28:02.317Z,16.80
2017-07-17T21:30:31.086Z,11.00
2017-07-17T21:32:59.474Z,12.90
2017-07-17T21:35:28.017Z,9.37
2017-07-17T21:37:56.424Z,12.50
2017-07-17T21:40:24.793Z,11.27
2017-07-17T21:42:53.255Z,20.37
2017-07-17T21:45:21.626Z,14.20
2017-07-17T21:47:49.980Z,13.10
2017-07-17T21:50:18.732Z,15.13
2017-07-17T21:52:47.097Z,10.30
2017-07-17T21:55:15.466Z,12.73
2017-07-17T21:57:43.828Z,13.10
2017-07-17T22:00:12.562Z,18.50
2017-07-17T22:02:40.926Z,19.77
2017-07-17T22:05:09.277Z,15.50
2017-07-17T22:07:37.643Z,10.30
2017-07-17T22:10:06.012Z,12.33
2017-07-17T22:12:34.780Z,9.43
2017-07-17T22:15:03.231Z,13.73
2017-07-17T22:17:31.825Z,9.90
2017-07-17T22:20:00.210Z,11.50
2017-07-17T22:22:28.560Z,23.40
2017-07-17T22:24:56.930Z,9.87
2017-07-17T22:27:25.290Z,11.17
2017-07-17T22:29:53.660Z,20.53
2017-07-17T22:32:22.401Z,13.20
2017-07-17T22:34:50.987Z,14.40
2017-07-17T22:37:19.344Z,16.20
2017-07-17T22:39:47.709Z,21.13
2017-07-17T22:42:16.067Z,14.30
2017-07-17T22:44:45.065Z,15.43
2017-07-17T22:47:14.021Z,11.83
2017-07-17T22:49:42.381Z,10.40
2017-07-17T22:52:10.790Z,9.07
2017-07-17T22:54:39.145Z,8.37
2017-07-17T22:57:07.496Z,17.23
2017-07-17T22:59:35.868Z,10.40
2017-07-17T23:02:04.242Z,10.27
2017-07-17T23:04:33.201Z,17.33
2017-07-17T23:07:01.551Z,12.60
2017-07-17T23:09:29.918Z,14.80
2017-07-17T23:11:58.271Z,14.43
2017-07-17T23:14:27.042Z,11.80
2017-07-17T23:16:55.413Z,18.40
2017-07-17T23:19:23.777Z,10.80
2017-07-17T23:21:52.465Z,15.03
2017-07-17T23:24:20.818Z,10.77
2017-07-17T23:26:49.189Z,11.47
2017-07-17T23:29:17.544Z,9.83
2017-07-17T23:31:46.302Z,20.20
2017-07-17T23:34:14.675Z,12.53
2017-07-17T23:36:43.445Z,17.80
2017-07-17T23:39:11.932Z,11.20
2017-07-17T23:41:40.298Z,13.93
2017-07-17T23:44:08.662Z,14.07
2017-07-17T23:46:37.038Z,21.80
2017-07-17T23:49:05.385Z,11.60
2017-07-17T23:51:34.147Z,13.57
2017-07-17T23:54:02.503Z,19.77
2017-07-17T23:56:30.864Z,11.50
2017-07-17T23:58:59.215Z,13.50
